sensor_id;sensor_type;location;lat;lon;timestamp;P1;durP1;ratioP1;P2;durP2;ratioP2
32393;SDS011;18853;45.426;9.206;2023-05-07T00:01:38;35.95;;;31.98;;
32393;SDS011;18853;45.426;9.206;2023-05-07T00:04:04;37.85;;;33.75;;
32393;SDS011;18853;45.426;9.206;2023-05-07T00:06:31;38.30;;;34.08;;
32393;SDS011;18853;45.426;9.206;2023-05-07T00:08:58;32.83;;;29.45;;
32393;SDS011;18853;45.426;9.206;2023-05-07T00:11:24;22.10;;;19.90;;
32393;SDS011;18853;45.426;9.206;2023-05-07T00:13:51;14.13;;;12.63;;
32393;SDS011;18853;45.426;9.206;2023-05-07T00:16:16;13.15;;;9.98;;
32393;SDS011;18853;45.426;9.206;2023-05-07T00:18:42;8.57;;;7.40;;
32393;SDS011;18853;45.426;9.206;2023-05-07T00:21:08;9.23;;;5.30;;
32393;SDS011;18853;45.426;9.206;2023-05-07T00:23:33;8.60;;;5.03;;
32393;SDS011;18853;45.426;9.206;2023-05-07T00:25:59;4.93;;;4.10;;
32393;SDS011;18853;45.426;9.206;2023-05-07T00:28:25;7.55;;;4.18;;
32393;SDS011;18853;45.426;9.206;2023-05-07T00:30:51;9.02;;;3.75;;
32393;SDS011;18853;45.426;9.206;2023-05-07T00:33:17;5.53;;;3.67;;
32393;SDS011;18853;45.426;9.206;2023-05-07T00:35:43;5.22;;;2.92;;
32393;SDS011;18853;45.426;9.206;2023-05-07T00:38:08;5.65;;;2.80;;
32393;SDS011;18853;45.426;9.206;2023-05-07T00:40:34;4.97;;;3.08;;
32393;SDS011;18853;45.426;9.206;2023-05-07T00:43:00;7.65;;;3.90;;
32393;SDS011;18853;45.426;9.206;2023-05-07T00:45:28;5.78;;;3.17;;
32393;SDS011;18853;45.426;9.206;2023-05-07T00:47:59;4.72;;;2.78;;
32393;SDS011;18853;45.426;9.206;2023-05-07T00:50:26;7.15;;;2.95;;
32393;SDS011;18853;45.426;9.206;2023-05-07T00:52:53;5.22;;;2.90;;
32393;SDS011;18853;45.426;9.206;2023-05-07T00:55:19;4.00;;;2.28;;
32393;SDS011;18853;45.426;9.206;2023-05-07T00:57:46;3.60;;;2.10;;
32393;SDS011;18853;45.426;9.206;2023-05-07T01:00:12;7.07;;;2.22;;
32393;SDS011;18853;45.426;9.206;2023-05-07T01:02:39;3.95;;;2.20;;
32393;SDS011;18853;45.426;9.206;2023-05-07T01:05:05;5.15;;;2.50;;
32393;SDS011;18853;45.426;9.206;2023-05-07T01:07:33;6.18;;;2.40;;
32393;SDS011;18853;45.426;9.206;2023-05-07T01:10:00;4.90;;;2.45;;
32393;SDS011;18853;45.426;9.206;2023-05-07T01:12:26;5.72;;;2.35;;
32393;SDS011;18853;45.426;9.206;2023-05-07T01:14:53;5.65;;;2.50;;
32393;SDS011;18853;45.426;9.206;2023-05-07T01:17:19;3.53;;;2.05;;
32393;SDS011;18853;45.426;9.206;2023-05-07T01:19:45;3.72;;;2.13;;
32393;SDS011;18853;45.426;9.206;2023-05-07T01:22:12;4.20;;;2.53;;
32393;SDS011;18853;45.426;9.206;2023-05-07T01:24:41;4.63;;;2.10;;
32393;SDS011;18853;45.426;9.206;2023-05-07T01:27:07;6.00;;;2.03;;
32393;SDS011;18853;45.426;9.206;2023-05-07T01:29:32;4.47;;;2.30;;
32393;SDS011;18853;45.426;9.206;2023-05-07T01:31:59;5.63;;;2.47;;
32393;SDS011;18853;45.426;9.206;2023-05-07T01:34:26;4.72;;;2.95;;
32393;SDS011;18853;45.426;9.206;2023-05-07T01:36:55;7.75;;;2.72;;
32393;SDS011;18853;45.426;9.206;2023-05-07T01:39:26;4.88;;;2.83;;
32393;SDS011;18853;45.426;9.206;2023-05-07T01:41:56;5.40;;;2.65;;
32393;SDS011;18853;45.426;9.206;2023-05-07T01:44:24;8.80;;;3.33;;
32393;SDS011;18853;45.426;9.206;2023-05-07T01:46:50;8.68;;;3.80;;
32393;SDS011;18853;45.426;9.206;2023-05-07T01:49:16;8.80;;;6.35;;
32393;SDS011;18853;45.426;9.206;2023-05-07T01:51:42;11.73;;;8.52;;
32393;SDS011;18853;45.426;9.206;2023-05-07T01:54:09;15.45;;;12.57;;
32393;SDS011;18853;45.426;9.206;2023-05-07T01:56:35;18.33;;;15.10;;
32393;SDS011;18853;45.426;9.206;2023-05-07T01:59:00;16.55;;;14.90;;
32393;SDS011;18853;45.426;9.206;2023-05-07T02:01:27;20.40;;;14.80;;
32393;SDS011;18853;45.426;9.206;2023-05-07T02:03:53;15.63;;;14.02;;
32393;SDS011;18853;45.426;9.206;2023-05-07T02:06:19;16.75;;;12.52;;
32393;SDS011;18853;45.426;9.206;2023-05-07T02:08:45;13.60;;;11.52;;
32393;SDS011;18853;45.426;9.206;2023-05-07T02:11:12;16.02;;;10.85;;
32393;SDS011;18853;45.426;9.206;2023-05-07T02:13:37;12.25;;;10.00;;
32393;SDS011;18853;45.426;9.206;2023-05-07T02:16:03;9.38;;;7.95;;
32393;SDS011;18853;45.426;9.206;2023-05-07T02:18:29;9.25;;;7.10;;
32393;SDS011;18853;45.426;9.206;2023-05-07T02:20:55;9.88;;;7.15;;
32393;SDS011;18853;45.426;9.206;2023-05-07T02:23:21;7.30;;;5.18;;
32393;SDS011;18853;45.426;9.206;2023-05-07T02:25:46;5.97;;;4.10;;
32393;SDS011;18853;45.426;9.206;2023-05-07T02:28:12;5.80;;;3.35;;
32393;SDS011;18853;45.426;9.206;2023-05-07T02:30:38;4.55;;;2.35;;
32393;SDS011;18853;45.426;9.206;2023-05-07T02:33:05;3.67;;;1.95;;
32393;SDS011;18853;45.426;9.206;2023-05-07T02:35:32;3.80;;;1.75;;
32393;SDS011;18853;45.426;9.206;2023-05-07T02:37:58;4.70;;;1.83;;
32393;SDS011;18853;45.426;9.206;2023-05-07T02:40:23;3.95;;;1.70;;
32393;SDS011;18853;45.426;9.206;2023-05-07T02:42:49;5.75;;;1.65;;
32393;SDS011;18853;45.426;9.206;2023-05-07T02:45:15;1.95;;;1.30;;
32393;SDS011;18853;45.426;9.206;2023-05-07T02:47:40;2.58;;;1.38;;
32393;SDS011;18853;45.426;9.206;2023-05-07T02:50:06;3.50;;;1.23;;
32393;SDS011;18853;45.426;9.206;2023-05-07T02:52:32;4.60;;;1.50;;
32393;SDS011;18853;45.426;9.206;2023-05-07T02:54:58;3.53;;;1.25;;
32393;SDS011;18853;45.426;9.206;2023-05-07T02:57:23;2.03;;;1.10;;
32393;SDS011;18853;45.426;9.206;2023-05-07T02:59:49;2.80;;;1.23;;
32393;SDS011;18853;45.426;9.206;2023-05-07T03:02:15;3.28;;;1.20;;
32393;SDS011;18853;45.426;9.206;2023-05-07T03:04:41;2.55;;;0.95;;
32393;SDS011;18853;45.426;9.206;2023-05-07T03:07:07;3.40;;;1.00;;
32393;SDS011;18853;45.426;9.206;2023-05-07T03:09:33;4.60;;;1.20;;
32393;SDS011;18853;45.426;9.206;2023-05-07T03:11:58;1.60;;;0.88;;
32393;SDS011;18853;45.426;9.206;2023-05-07T03:14:24;2.45;;;1.00;;
32393;SDS011;18853;45.426;9.206;2023-05-07T03:16:50;3.95;;;1.02;;
32393;SDS011;18853;45.426;9.206;2023-05-07T03:19:15;2.13;;;0.88;;
32393;SDS011;18853;45.426;9.206;2023-05-07T03:21:41;4.07;;;0.88;;
32393;SDS011;18853;45.426;9.206;2023-05-07T03:24:07;2.35;;;0.82;;
32393;SDS011;18853;45.426;9.206;2023-05-07T03:26:33;1.52;;;1.00;;
32393;SDS011;18853;45.426;9.206;2023-05-07T03:28:58;2.28;;;1.00;;
32393;SDS011;18853;45.426;9.206;2023-05-07T03:31:24;3.53;;;1.00;;
32393;SDS011;18853;45.426;9.206;2023-05-07T03:33:50;2.13;;;1.20;;
32393;SDS011;18853;45.426;9.206;2023-05-07T03:36:16;3.58;;;1.48;;
32393;SDS011;18853;45.426;9.206;2023-05-07T03:38:42;3.17;;;1.15;;
32393;SDS011;18853;45.426;9.206;2023-05-07T03:41:08;2.95;;;1.42;;
32393;SDS011;18853;45.426;9.206;2023-05-07T03:43:34;2.42;;;1.00;;
32393;SDS011;18853;45.426;9.206;2023-05-07T03:46:00;2.97;;;1.38;;
32393;SDS011;18853;45.426;9.206;2023-05-07T03:48:25;4.50;;;1.20;;
32393;SDS011;18853;45.426;9.206;2023-05-07T03:50:51;2.28;;;1.10;;
32393;SDS011;18853;45.426;9.206;2023-05-07T03:53:17;2.28;;;1.10;;
32393;SDS011;18853;45.426;9.206;2023-05-07T03:55:42;3.20;;;1.10;;
32393;SDS011;18853;45.426;9.206;2023-05-07T03:58:08;1.92;;;1.15;;
32393;SDS011;18853;45.426;9.206;2023-05-07T04:00:34;2.08;;;1.30;;
32393;SDS011;18853;45.426;9.206;2023-05-07T04:03:03;2.05;;;1.05;;
32393;SDS011;18853;45.426;9.206;2023-05-07T04:05:30;1.75;;;0.90;;
32393;SDS011;18853;45.426;9.206;2023-05-07T04:07:57;3.08;;;1.20;;
32393;SDS011;18853;45.426;9.206;2023-05-07T04:10:24;2.85;;;1.20;;
32393;SDS011;18853;45.426;9.206;2023-05-07T04:12:49;2.33;;;1.08;;
32393;SDS011;18853;45.426;9.206;2023-05-07T04:15:15;3.60;;;1.02;;
32393;SDS011;18853;45.426;9.206;2023-05-07T04:17:41;2.58;;;0.90;;
32393;SDS011;18853;45.426;9.206;2023-05-07T04:20:09;2.05;;;1.20;;
32393;SDS011;18853;45.426;9.206;2023-05-07T04:22:35;4.60;;;1.10;;
32393;SDS011;18853;45.426;9.206;2023-05-07T04:25:02;1.98;;;0.80;;
32393;SDS011;18853;45.426;9.206;2023-05-07T04:27:28;2.42;;;0.90;;
32393;SDS011;18853;45.426;9.206;2023-05-07T04:29:54;5.05;;;1.02;;
32393;SDS011;18853;45.426;9.206;2023-05-07T04:32:23;1.80;;;0.90;;
32393;SDS011;18853;45.426;9.206;2023-05-07T04:34:50;2.33;;;0.90;;
32393;SDS011;18853;45.426;9.206;2023-05-07T04:37:15;1.67;;;1.00;;
32393;SDS011;18853;45.426;9.206;2023-05-07T04:39:42;2.42;;;1.00;;
32393;SDS011;18853;45.426;9.206;2023-05-07T04:42:07;1.92;;;0.90;;
32393;SDS011;18853;45.426;9.206;2023-05-07T04:44:34;1.83;;;0.90;;
32393;SDS011;18853;45.426;9.206;2023-05-07T04:47:02;1.88;;;1.00;;
32393;SDS011;18853;45.426;9.206;2023-05-07T04:49:27;3.55;;;0.77;;
32393;SDS011;18853;45.426;9.206;2023-05-07T04:51:53;2.40;;;1.00;;
32393;SDS011;18853;45.426;9.206;2023-05-07T04:54:19;2.60;;;0.90;;
32393;SDS011;18853;45.426;9.206;2023-05-07T04:56:44;2.38;;;1.02;;
32393;SDS011;18853;45.426;9.206;2023-05-07T04:59:10;1.48;;;0.90;;
32393;SDS011;18853;45.426;9.206;2023-05-07T05:01:36;0.98;;;0.75;;
32393;SDS011;18853;45.426;9.206;2023-05-07T05:04:01;1.98;;;1.00;;
32393;SDS011;18853;45.426;9.206;2023-05-07T05:06:27;1.73;;;1.10;;
32393;SDS011;18853;45.426;9.206;2023-05-07T05:08:53;2.92;;;0.90;;
32393;SDS011;18853;45.426;9.206;2023-05-07T05:11:19;1.60;;;1.00;;
32393;SDS011;18853;45.426;9.206;2023-05-07T05:13:45;1.73;;;0.90;;
32393;SDS011;18853;45.426;9.206;2023-05-07T05:16:14;1.63;;;0.93;;
32393;SDS011;18853;45.426;9.206;2023-05-07T05:18:40;1.95;;;0.90;;
32393;SDS011;18853;45.426;9.206;2023-05-07T05:21:06;1.45;;;0.90;;
32393;SDS011;18853;45.426;9.206;2023-05-07T05:23:31;2.47;;;1.10;;
32393;SDS011;18853;45.426;9.206;2023-05-07T05:25:57;2.78;;;0.75;;
32393;SDS011;18853;45.426;9.206;2023-05-07T05:28:23;1.67;;;1.00;;
32393;SDS011;18853;45.426;9.206;2023-05-07T05:30:49;3.35;;;0.82;;
32393;SDS011;18853;45.426;9.206;2023-05-07T05:33:15;1.10;;;0.73;;
32393;SDS011;18853;45.426;9.206;2023-05-07T05:35:41;2.67;;;1.38;;
32393;SDS011;18853;45.426;9.206;2023-05-07T05:38:07;1.75;;;0.70;;
32393;SDS011;18853;45.426;9.206;2023-05-07T05:40:33;2.45;;;0.90;;
32393;SDS011;18853;45.426;9.206;2023-05-07T05:42:59;1.85;;;1.00;;
32393;SDS011;18853;45.426;9.206;2023-05-07T05:45:25;1.77;;;0.95;;
32393;SDS011;18853;45.426;9.206;2023-05-07T05:47:50;2.38;;;0.88;;
32393;SDS011;18853;45.426;9.206;2023-05-07T05:50:16;2.17;;;0.88;;
32393;SDS011;18853;45.426;9.206;2023-05-07T05:52:42;1.98;;;0.95;;
32393;SDS011;18853;45.426;9.206;2023-05-07T05:55:08;1.92;;;0.93;;
32393;SDS011;18853;45.426;9.206;2023-05-07T05:57:34;1.75;;;0.90;;
32393;SDS011;18853;45.426;9.206;2023-05-07T06:00:00;2.78;;;0.80;;
32393;SDS011;18853;45.426;9.206;2023-05-07T06:02:27;3.05;;;1.00;;
32393;SDS011;18853;45.426;9.206;2023-05-07T06:04:53;2.20;;;1.00;;
32393;SDS011;18853;45.426;9.206;2023-05-07T06:07:19;2.13;;;1.20;;
32393;SDS011;18853;45.426;9.206;2023-05-07T06:09:44;2.42;;;1.10;;
32393;SDS011;18853;45.426;9.206;2023-05-07T06:12:11;1.70;;;1.00;;
32393;SDS011;18853;45.426;9.206;2023-05-07T06:14:37;2.40;;;1.10;;
32393;SDS011;18853;45.426;9.206;2023-05-07T06:17:02;2.25;;;1.20;;
32393;SDS011;18853;45.426;9.206;2023-05-07T06:19:28;1.13;;;0.80;;
32393;SDS011;18853;45.426;9.206;2023-05-07T06:21:54;3.85;;;1.23;;
32393;SDS011;18853;45.426;9.206;2023-05-07T06:24:21;3.88;;;1.35;;
32393;SDS011;18853;45.426;9.206;2023-05-07T06:26:47;2.03;;;0.95;;
32393;SDS011;18853;45.426;9.206;2023-05-07T06:29:13;1.80;;;0.98;;
32393;SDS011;18853;45.426;9.206;2023-05-07T06:31:39;2.15;;;0.95;;
32393;SDS011;18853;45.426;9.206;2023-05-07T06:34:05;2.40;;;1.10;;
32393;SDS011;18853;45.426;9.206;2023-05-07T06:36:31;1.65;;;1.10;;
32393;SDS011;18853;45.426;9.206;2023-05-07T06:38:56;3.67;;;1.45;;
32393;SDS011;18853;45.426;9.206;2023-05-07T06:41:22;2.47;;;1.10;;
32393;SDS011;18853;45.426;9.206;2023-05-07T06:43:48;3.45;;;1.40;;
32393;SDS011;18853;45.426;9.206;2023-05-07T06:46:13;1.98;;;1.00;;
32393;SDS011;18853;45.426;9.206;2023-05-07T06:48:40;5.07;;;1.40;;
32393;SDS011;18853;45.426;9.206;2023-05-07T06:51:05;3.85;;;1.40;;
32393;SDS011;18853;45.426;9.206;2023-05-07T06:53:31;3.60;;;1.30;;
32393;SDS011;18853;45.426;9.206;2023-05-07T06:55:57;4.03;;;1.20;;
32393;SDS011;18853;45.426;9.206;2023-05-07T06:58:22;2.53;;;1.20;;
32393;SDS011;18853;45.426;9.206;2023-05-07T07:00:48;2.22;;;1.20;;
32393;SDS011;18853;45.426;9.206;2023-05-07T07:03:14;2.38;;;1.15;;
32393;SDS011;18853;45.426;9.206;2023-05-07T07:05:40;2.55;;;1.10;;
32393;SDS011;18853;45.426;9.206;2023-05-07T07:08:06;3.30;;;1.40;;
32393;SDS011;18853;45.426;9.206;2023-05-07T07:10:32;6.38;;;2.50;;
32393;SDS011;18853;45.426;9.206;2023-05-07T07:12:58;12.63;;;11.30;;
32393;SDS011;18853;45.426;9.206;2023-05-07T07:15:24;6.25;;;2.72;;
32393;SDS011;18853;45.426;9.206;2023-05-07T07:17:50;17.33;;;14.18;;
32393;SDS011;18853;45.426;9.206;2023-05-07T07:20:16;6.10;;;5.38;;
32393;SDS011;18853;45.426;9.206;2023-05-07T07:22:42;9.85;;;6.65;;
32393;SDS011;18853;45.426;9.206;2023-05-07T07:25:08;2.92;;;1.52;;
32393;SDS011;18853;45.426;9.206;2023-05-07T07:27:34;7.25;;;5.28;;
32393;SDS011;18853;45.426;9.206;2023-05-07T07:30:01;12.93;;;8.93;;
32393;SDS011;18853;45.426;9.206;2023-05-07T07:32:26;24.38;;;19.63;;
32393;SDS011;18853;45.426;9.206;2023-05-07T07:34:52;33.35;;;28.65;;
32393;SDS011;18853;45.426;9.206;2023-05-07T07:37:18;36.33;;;30.45;;
32393;SDS011;18853;45.426;9.206;2023-05-07T07:39:43;28.42;;;25.23;;
32393;SDS011;18853;45.426;9.206;2023-05-07T07:42:09;25.05;;;20.27;;
32393;SDS011;18853;45.426;9.206;2023-05-07T07:44:35;19.67;;;16.10;;
32393;SDS011;18853;45.426;9.206;2023-05-07T07:47:00;22.35;;;14.52;;
32393;SDS011;18853;45.426;9.206;2023-05-07T07:49:26;22.38;;;12.45;;
32393;SDS011;18853;45.426;9.206;2023-05-07T07:51:52;26.73;;;12.05;;
32393;SDS011;18853;45.426;9.206;2023-05-07T07:54:18;5.07;;;2.72;;
32393;SDS011;18853;45.426;9.206;2023-05-07T07:56:44;19.13;;;8.75;;
32393;SDS011;18853;45.426;9.206;2023-05-07T07:59:09;15.35;;;7.40;;
32393;SDS011;18853;45.426;9.206;2023-05-07T08:01:35;3.90;;;1.60;;
32393;SDS011;18853;45.426;9.206;2023-05-07T08:04:01;2.78;;;1.65;;
32393;SDS011;18853;45.426;9.206;2023-05-07T08:06:28;2.13;;;1.52;;
32393;SDS011;18853;45.426;9.206;2023-05-07T08:08:54;3.97;;;1.60;;
32393;SDS011;18853;45.426;9.206;2023-05-07T08:11:20;3.67;;;1.30;;
32393;SDS011;18853;45.426;9.206;2023-05-07T08:13:46;3.03;;;1.60;;
32393;SDS011;18853;45.426;9.206;2023-05-07T08:16:12;3.30;;;1.30;;
32393;SDS011;18853;45.426;9.206;2023-05-07T08:18:38;1.92;;;1.42;;
32393;SDS011;18853;45.426;9.206;2023-05-07T08:21:04;2.60;;;1.38;;
32393;SDS011;18853;45.426;9.206;2023-05-07T08:23:30;2.33;;;1.42;;
32393;SDS011;18853;45.426;9.206;2023-05-07T08:25:56;2.45;;;1.35;;
32393;SDS011;18853;45.426;9.206;2023-05-07T08:28:22;3.65;;;1.80;;
32393;SDS011;18853;45.426;9.206;2023-05-07T08:30:49;3.25;;;1.95;;
32393;SDS011;18853;45.426;9.206;2023-05-07T08:33:15;3.38;;;1.77;;
32393;SDS011;18853;45.426;9.206;2023-05-07T08:35:41;2.95;;;1.48;;
32393;SDS011;18853;45.426;9.206;2023-05-07T08:38:07;2.78;;;1.80;;
32393;SDS011;18853;45.426;9.206;2023-05-07T08:40:36;2.50;;;1.55;;
32393;SDS011;18853;45.426;9.206;2023-05-07T08:43:05;2.17;;;1.35;;
32393;SDS011;18853;45.426;9.206;2023-05-07T08:45:31;4.18;;;1.75;;
32393;SDS011;18853;45.426;9.206;2023-05-07T08:47:59;4.20;;;1.77;;
32393;SDS011;18853;45.426;9.206;2023-05-07T08:50:28;42.33;;;28.42;;
32393;SDS011;18853;45.426;9.206;2023-05-07T08:52:54;12.43;;;7.68;;
32393;SDS011;18853;45.426;9.206;2023-05-07T08:55:21;29.98;;;21.30;;
32393;SDS011;18853;45.426;9.206;2023-05-07T08:57:48;7.40;;;2.88;;
32393;SDS011;18853;45.426;9.206;2023-05-07T09:00:14;3.88;;;2.03;;
32393;SDS011;18853;45.426;9.206;2023-05-07T09:02:40;2.75;;;1.27;;
32393;SDS011;18853;45.426;9.206;2023-05-07T09:05:05;3.78;;;1.40;;
32393;SDS011;18853;45.426;9.206;2023-05-07T09:07:32;4.22;;;1.90;;
32393;SDS011;18853;45.426;9.206;2023-05-07T09:09:57;2.95;;;1.80;;
32393;SDS011;18853;45.426;9.206;2023-05-07T09:12:24;5.05;;;2.40;;
32393;SDS011;18853;45.426;9.206;2023-05-07T09:14:50;5.55;;;2.10;;
32393;SDS011;18853;45.426;9.206;2023-05-07T09:17:16;4.95;;;1.75;;
32393;SDS011;18853;45.426;9.206;2023-05-07T09:19:43;4.55;;;1.95;;
32393;SDS011;18853;45.426;9.206;2023-05-07T09:22:13;5.45;;;1.85;;
32393;SDS011;18853;45.426;9.206;2023-05-07T09:24:39;2.92;;;1.60;;
32393;SDS011;18853;45.426;9.206;2023-05-07T09:27:05;4.43;;;1.73;;
32393;SDS011;18853;45.426;9.206;2023-05-07T09:29:33;7.65;;;2.60;;
32393;SDS011;18853;45.426;9.206;2023-05-07T09:32:03;3.42;;;2.20;;
32393;SDS011;18853;45.426;9.206;2023-05-07T09:34:33;3.67;;;2.55;;
32393;SDS011;18853;45.426;9.206;2023-05-07T09:37:03;3.65;;;2.53;;
32393;SDS011;18853;45.426;9.206;2023-05-07T09:39:46;5.53;;;3.05;;
32393;SDS011;18853;45.426;9.206;2023-05-07T09:42:13;5.28;;;2.65;;
32393;SDS011;18853;45.426;9.206;2023-05-07T09:44:43;4.55;;;2.13;;
32393;SDS011;18853;45.426;9.206;2023-05-07T09:47:09;4.80;;;2.55;;
32393;SDS011;18853;45.426;9.206;2023-05-07T09:49:37;2.97;;;2.00;;
32393;SDS011;18853;45.426;9.206;2023-05-07T09:52:07;3.45;;;2.42;;
32393;SDS011;18853;45.426;9.206;2023-05-07T09:54:35;4.82;;;2.42;;
32393;SDS011;18853;45.426;9.206;2023-05-07T09:57:02;5.15;;;2.22;;
32393;SDS011;18853;45.426;9.206;2023-05-07T09:59:31;7.25;;;3.22;;
32393;SDS011;18853;45.426;9.206;2023-05-07T10:01:58;4.30;;;2.08;;
32393;SDS011;18853;45.426;9.206;2023-05-07T10:04:27;5.95;;;2.28;;
32393;SDS011;18853;45.426;9.206;2023-05-07T10:06:54;5.13;;;2.50;;
32393;SDS011;18853;45.426;9.206;2023-05-07T10:09:20;4.18;;;2.55;;
32393;SDS011;18853;45.426;9.206;2023-05-07T10:11:48;3.58;;;2.60;;
32393;SDS011;18853;45.426;9.206;2023-05-07T10:14:15;4.35;;;2.83;;
32393;SDS011;18853;45.426;9.206;2023-05-07T10:16:41;5.03;;;2.40;;
32393;SDS011;18853;45.426;9.206;2023-05-07T10:19:09;3.88;;;2.47;;
32393;SDS011;18853;45.426;9.206;2023-05-07T10:21:39;4.68;;;2.72;;
32393;SDS011;18853;45.426;9.206;2023-05-07T10:24:23;5.25;;;3.08;;
32393;SDS011;18853;45.426;9.206;2023-05-07T10:26:52;4.18;;;2.38;;
32393;SDS011;18853;45.426;9.206;2023-05-07T10:32:17;5.95;;;2.53;;
32393;SDS011;18853;45.426;9.206;2023-05-07T10:34:48;3.58;;;2.65;;
32393;SDS011;18853;45.426;9.206;2023-05-07T10:37:18;4.00;;;2.90;;
32393;SDS011;18853;45.426;9.206;2023-05-07T10:39:44;5.25;;;2.70;;
32393;SDS011;18853;45.426;9.206;2023-05-07T10:42:11;3.85;;;2.50;;
32393;SDS011;18853;45.426;9.206;2023-05-07T10:44:37;3.28;;;2.30;;
32393;SDS011;18853;45.426;9.206;2023-05-07T10:47:04;3.75;;;2.35;;
32393;SDS011;18853;45.426;9.206;2023-05-07T10:52:15;4.35;;;2.53;;
32393;SDS011;18853;45.426;9.206;2023-05-07T10:57:40;2.83;;;1.92;;
32393;SDS011;18853;45.426;9.206;2023-05-07T11:05:26;3.42;;;2.40;;
32393;SDS011;18853;45.426;9.206;2023-05-07T11:07:56;4.03;;;2.17;;
32393;SDS011;18853;45.426;9.206;2023-05-07T11:14:02;4.15;;;2.63;;
32393;SDS011;18853;45.426;9.206;2023-05-07T11:16:19;3.30;;;2.40;;
32393;SDS011;18853;45.426;9.206;2023-05-07T11:18:46;4.95;;;2.60;;
32393;SDS011;18853;45.426;9.206;2023-05-07T11:24:02;3.42;;;2.50;;
32393;SDS011;18853;45.426;9.206;2023-05-07T11:26:29;3.72;;;2.97;;
32393;SDS011;18853;45.426;9.206;2023-05-07T11:28:56;4.68;;;2.38;;
32393;SDS011;18853;45.426;9.206;2023-05-07T11:31:25;3.55;;;2.60;;
32393;SDS011;18853;45.426;9.206;2023-05-07T11:33:53;4.93;;;2.40;;
32393;SDS011;18853;45.426;9.206;2023-05-07T11:36:21;4.22;;;2.85;;
32393;SDS011;18853;45.426;9.206;2023-05-07T11:38:48;3.80;;;2.60;;
32393;SDS011;18853;45.426;9.206;2023-05-07T11:41:14;5.13;;;2.95;;
32393;SDS011;18853;45.426;9.206;2023-05-07T11:43:57;3.63;;;2.30;;
32393;SDS011;18853;45.426;9.206;2023-05-07T11:46:24;2.83;;;2.15;;
32393;SDS011;18853;45.426;9.206;2023-05-07T11:48:50;3.22;;;2.00;;
32393;SDS011;18853;45.426;9.206;2023-05-07T11:51:20;3.78;;;2.72;;
32393;SDS011;18853;45.426;9.206;2023-05-07T11:53:46;3.95;;;3.00;;
32393;SDS011;18853;45.426;9.206;2023-05-07T11:56:13;5.32;;;2.80;;
32393;SDS011;18853;45.426;9.206;2023-05-07T11:58:41;3.05;;;2.40;;
32393;SDS011;18853;45.426;9.206;2023-05-07T12:01:08;4.57;;;2.50;;
32393;SDS011;18853;45.426;9.206;2023-05-07T12:03:36;4.30;;;2.50;;
32393;SDS011;18853;45.426;9.206;2023-05-07T12:06:02;3.10;;;2.30;;
32393;SDS011;18853;45.426;9.206;2023-05-07T12:08:31;3.38;;;2.40;;
32393;SDS011;18853;45.426;9.206;2023-05-07T12:10:57;4.63;;;2.25;;
32393;SDS011;18853;45.426;9.206;2023-05-07T12:13:24;4.22;;;2.47;;
32393;SDS011;18853;45.426;9.206;2023-05-07T12:15:51;295.25;;;250.60;;
32393;SDS011;18853;45.426;9.206;2023-05-07T12:18:18;401.60;;;349.42;;
32393;SDS011;18853;45.426;9.206;2023-05-07T12:20:44;166.13;;;128.35;;
32393;SDS011;18853;45.426;9.206;2023-05-07T12:23:11;19.02;;;14.52;;
32393;SDS011;18853;45.426;9.206;2023-05-07T12:25:38;23.98;;;17.58;;
32393;SDS011;18853;45.426;9.206;2023-05-07T12:28:05;31.40;;;23.83;;
32393;SDS011;18853;45.426;9.206;2023-05-07T12:30:38;4.95;;;3.67;;
32393;SDS011;18853;45.426;9.206;2023-05-07T12:33:05;10.30;;;3.97;;
32393;SDS011;18853;45.426;9.206;2023-05-07T12:35:32;5.65;;;3.67;;
32393;SDS011;18853;45.426;9.206;2023-05-07T12:38:01;3.28;;;2.20;;
32393;SDS011;18853;45.426;9.206;2023-05-07T12:41:02;3.63;;;2.00;;
32393;SDS011;18853;45.426;9.206;2023-05-07T12:43:23;3.17;;;1.55;;
32393;SDS011;18853;45.426;9.206;2023-05-07T12:45:51;3.70;;;2.17;;
32393;SDS011;18853;45.426;9.206;2023-05-07T12:48:19;1.45;;;1.10;;
32393;SDS011;18853;45.426;9.206;2023-05-07T12:50:45;3.15;;;1.60;;
32393;SDS011;18853;45.426;9.206;2023-05-07T12:53:19;2.75;;;1.40;;
32393;SDS011;18853;45.426;9.206;2023-05-07T12:55:47;3.58;;;1.17;;
32393;SDS011;18853;45.426;9.206;2023-05-07T12:58:17;2.10;;;1.20;;
32393;SDS011;18853;45.426;9.206;2023-05-07T13:00:59;2.22;;;1.33;;
32393;SDS011;18853;45.426;9.206;2023-05-07T13:03:36;2.30;;;1.52;;
32393;SDS011;18853;45.426;9.206;2023-05-07T13:06:03;2.15;;;1.70;;
32393;SDS011;18853;45.426;9.206;2023-05-07T13:08:38;4.65;;;1.55;;
32393;SDS011;18853;45.426;9.206;2023-05-07T13:11:07;2.35;;;1.33;;
32393;SDS011;18853;45.426;9.206;2023-05-07T13:13:33;3.75;;;1.58;;
32393;SDS011;18853;45.426;9.206;2023-05-07T13:16:03;2.70;;;1.65;;
32393;SDS011;18853;45.426;9.206;2023-05-07T13:18:30;2.85;;;1.60;;
32393;SDS011;18853;45.426;9.206;2023-05-07T13:20:56;13.20;;;7.45;;
32393;SDS011;18853;45.426;9.206;2023-05-07T13:23:22;34.17;;;26.92;;
32393;SDS011;18853;45.426;9.206;2023-05-07T13:25:48;85.10;;;74.00;;
32393;SDS011;18853;45.426;9.206;2023-05-07T13:28:15;21.77;;;17.52;;
32393;SDS011;18853;45.426;9.206;2023-05-07T13:30:41;42.50;;;32.05;;
32393;SDS011;18853;45.426;9.206;2023-05-07T13:33:07;12.05;;;8.55;;
32393;SDS011;18853;45.426;9.206;2023-05-07T13:35:33;8.52;;;6.30;;
32393;SDS011;18853;45.426;9.206;2023-05-07T13:37:59;128.23;;;106.78;;
32393;SDS011;18853;45.426;9.206;2023-05-07T13:40:25;44.10;;;35.33;;
32393;SDS011;18853;45.426;9.206;2023-05-07T13:42:51;4.95;;;3.85;;
32393;SDS011;18853;45.426;9.206;2023-05-07T13:45:19;8.00;;;6.30;;
32393;SDS011;18853;45.426;9.206;2023-05-07T13:47:46;9.88;;;8.32;;
32393;SDS011;18853;45.426;9.206;2023-05-07T13:50:12;4.65;;;2.50;;
32393;SDS011;18853;45.426;9.206;2023-05-07T13:52:42;2.72;;;1.77;;
32393;SDS011;18853;45.426;9.206;2023-05-07T13:55:09;4.70;;;2.72;;
32393;SDS011;18853;45.426;9.206;2023-05-07T13:57:35;3.15;;;2.20;;
32393;SDS011;18853;45.426;9.206;2023-05-07T14:00:03;5.53;;;1.92;;
32393;SDS011;18853;45.426;9.206;2023-05-07T14:02:30;7.18;;;5.15;;
32393;SDS011;18853;45.426;9.206;2023-05-07T14:04:56;9.43;;;3.33;;
32393;SDS011;18853;45.426;9.206;2023-05-07T14:07:22;6.72;;;5.05;;
32393;SDS011;18853;45.426;9.206;2023-05-07T14:09:47;6.32;;;3.67;;
32393;SDS011;18853;45.426;9.206;2023-05-07T14:12:13;5.28;;;3.15;;
32393;SDS011;18853;45.426;9.206;2023-05-07T14:14:39;6.07;;;3.45;;
32393;SDS011;18853;45.426;9.206;2023-05-07T14:17:04;3.03;;;1.98;;
32393;SDS011;18853;45.426;9.206;2023-05-07T14:19:30;3.15;;;1.33;;
32393;SDS011;18853;45.426;9.206;2023-05-07T14:21:56;2.50;;;1.88;;
32393;SDS011;18853;45.426;9.206;2023-05-07T14:24:21;3.08;;;1.85;;
32393;SDS011;18853;45.426;9.206;2023-05-07T14:26:47;5.75;;;2.47;;
32393;SDS011;18853;45.426;9.206;2023-05-07T14:29:13;7.50;;;3.35;;
32393;SDS011;18853;45.426;9.206;2023-05-07T14:31:40;4.80;;;3.15;;
32393;SDS011;18853;45.426;9.206;2023-05-07T14:34:06;4.32;;;2.28;;
32393;SDS011;18853;45.426;9.206;2023-05-07T14:36:32;2.45;;;1.60;;
32393;SDS011;18853;45.426;9.206;2023-05-07T14:38:57;2.50;;;1.38;;
32393;SDS011;18853;45.426;9.206;2023-05-07T14:41:24;3.05;;;1.83;;
32393;SDS011;18853;45.426;9.206;2023-05-07T14:43:50;3.35;;;1.40;;
32393;SDS011;18853;45.426;9.206;2023-05-07T14:46:16;2.17;;;1.50;;
32393;SDS011;18853;45.426;9.206;2023-05-07T14:48:43;2.90;;;1.58;;
32393;SDS011;18853;45.426;9.206;2023-05-07T14:51:12;2.83;;;1.42;;
32393;SDS011;18853;45.426;9.206;2023-05-07T14:53:40;5.10;;;1.50;;
32393;SDS011;18853;45.426;9.206;2023-05-07T14:56:06;4.47;;;2.38;;
32393;SDS011;18853;45.426;9.206;2023-05-07T14:58:33;3.92;;;1.23;;
32393;SDS011;18853;45.426;9.206;2023-05-07T15:00:59;4.03;;;2.47;;